RJNY(METAR)
06/28 22:00
METAR RJNY 281300Z 19001KT 9000 FEW013 SCT/// 21/20 Q1014 RMK 1CU013
A2994=
戻る
トップページへ戻る
IMOC Co,.Ltd.